createdAt,value
2022-09-28T00:01:41.782Z,7.89
2022-09-28T00:06:43.468Z,7.87
2022-09-28T00:11:45.927Z,7.79
2022-09-28T00:16:48.608Z,7.82
2022-09-28T00:21:50.302Z,7.73
2022-09-28T00:26:56.961Z,7.59
2022-09-28T00:32:02.922Z,7.52
2022-09-28T00:37:06.371Z,7.55
2022-09-28T00:42:16.506Z,7.56
2022-09-28T00:47:31.594Z,7.60
2022-09-28T00:52:39.285Z,7.61
2022-09-28T00:57:46.901Z,7.67
2022-09-28T01:02:48.435Z,7.93
2022-09-28T01:07:50.809Z,8.12
2022-09-28T01:12:52.266Z,8.16
2022-09-28T01:18:15.005Z,8.21
2022-09-28T01:23:49.001Z,8.23
2022-09-28T01:28:59.323Z,8.35
2022-09-28T01:34:11.386Z,8.32
2022-09-28T01:39:37.354Z,8.34
2022-09-28T01:44:43.327Z,8.30
2022-09-28T01:49:53.520Z,8.35
2022-09-28T01:55:25.796Z,8.31
2022-09-28T02:00:28.169Z,8.24
2022-09-28T02:05:34.141Z,8.38
2022-09-28T02:10:48.689Z,8.37
2022-09-28T02:16:02.414Z,8.39
2022-09-28T02:21:26.976Z,8.45
2022-09-28T02:26:35.314Z,8.38
2022-09-28T02:31:36.795Z,8.43
2022-09-28T02:36:38.463Z,8.40
2022-09-28T02:41:55.877Z,8.39
2022-09-28T02:47:09.704Z,8.43
2022-09-28T02:52:35.725Z,8.38
2022-09-28T02:57:55.933Z,8.26
2022-09-28T03:03:07.494Z,8.29
2022-09-28T03:08:22.726Z,8.27
2022-09-28T03:13:26.001Z,8.22
2022-09-28T03:18:27.456Z,8.24
2022-09-28T03:23:28.984Z,8.22
2022-09-28T03:28:30.488Z,8.16
2022-09-28T03:33:32.218Z,8.21
2022-09-28T03:38:33.746Z,8.23
2022-09-28T03:43:35.524Z,8.12
2022-09-28T03:48:37.088Z,8.11
2022-09-28T03:53:39.707Z,8.07
2022-09-28T03:58:41.172Z,8.14
2022-09-28T04:03:43.137Z,8.03
2022-09-28T04:08:44.609Z,8.02
2022-09-28T04:13:49.809Z,7.96
2022-09-28T04:18:51.380Z,7.92
2022-09-28T04:23:53.228Z,7.89
2022-09-28T04:29:13.159Z,7.95
2022-09-28T04:34:17.435Z,7.98
2022-09-28T04:39:19.522Z,7.84
2022-09-28T04:44:21.207Z,7.85
2022-09-28T04:49:24.421Z,7.75
2022-09-28T04:54:25.919Z,7.70
2022-09-28T04:59:27.325Z,7.73
2022-09-28T05:04:29.005Z,7.78
2022-09-28T05:09:33.005Z,7.77
2022-09-28T05:14:36.495Z,7.78
2022-09-28T05:19:38.348Z,7.80
2022-09-28T05:24:39.852Z,7.82
2022-09-28T05:29:41.305Z,7.91
2022-09-28T05:34:43.157Z,7.85
2022-09-28T05:39:44.734Z,7.80
2022-09-28T05:44:46.281Z,7.80
2022-09-28T05:49:47.925Z,7.73
2022-09-28T05:54:49.608Z,7.88
2022-09-28T05:59:51.228Z,7.72
2022-09-28T06:04:53.736Z,7.78
2022-09-28T06:09:55.140Z,7.80
2022-09-28T06:14:58.556Z,7.77
2022-09-28T06:20:00.182Z,7.73
2022-09-28T06:25:01.740Z,7.73
2022-09-28T06:30:03.909Z,7.78
2022-09-28T06:35:06.301Z,7.99
2022-09-28T06:40:08.311Z,7.84
2022-09-28T06:45:11.351Z,7.86
2022-09-28T06:50:14.579Z,7.87
2022-09-28T06:55:16.036Z,7.96
2022-09-28T07:00:17.518Z,7.93
2022-09-28T07:05:19.938Z,7.98
2022-09-28T07:10:27.754Z,8.09
2022-09-28T07:15:30.212Z,8.04
2022-09-28T07:20:49.021Z,8.18
2022-09-28T07:25:54.852Z,8.30
2022-09-28T07:30:57.475Z,8.37
2022-09-28T07:36:00.929Z,8.43
2022-09-28T07:41:16.837Z,8.52
2022-09-28T07:46:18.368Z,8.49
2022-09-28T07:51:21.254Z,8.49
2022-09-28T07:56:23.356Z,8.56
2022-09-28T08:01:24.932Z,8.52
2022-09-28T08:06:26.351Z,8.60
2022-09-28T08:11:27.746Z,8.60
2022-09-28T08:16:30.345Z,8.63
2022-09-28T08:21:47.209Z,8.73
2022-09-28T08:26:49.364Z,8.74
2022-09-28T08:31:50.878Z,8.97
2022-09-28T08:36:53.195Z,9.04
2022-09-28T08:42:13.321Z,9.16
2022-09-28T08:47:49.673Z,9.20
2022-09-28T08:52:56.249Z,9.26
2022-09-28T08:58:13.955Z,9.39
2022-09-28T09:03:20.597Z,9.49
2022-09-28T09:08:47.866Z,9.55
2022-09-28T09:14:08.871Z,9.53
2022-09-28T09:19:26.307Z,9.72
2022-09-28T09:24:52.033Z,9.64
2022-09-28T09:30:03.168Z,9.69
2022-09-28T09:35:25.515Z,9.74
2022-09-28T09:40:57.458Z,9.89
2022-09-28T09:46:17.951Z,9.95
2022-09-28T09:51:24.809Z,10.05
2022-09-28T09:56:34.540Z,10.19
2022-09-28T10:01:38.906Z,10.33
2022-09-28T10:06:42.413Z,10.51
2022-09-28T10:11:47.592Z,10.70
2022-09-28T10:16:51.060Z,10.84
2022-09-28T10:21:53.250Z,11.06
2022-09-28T10:26:58.168Z,11.37
2022-09-28T10:31:59.666Z,11.14
2022-09-28T10:37:04.209Z,11.16
2022-09-28T10:42:11.556Z,11.02
2022-09-28T10:47:18.146Z,11.00
2022-09-28T10:52:36.253Z,11.18
2022-09-28T10:57:37.679Z,11.82
2022-09-28T11:02:40.770Z,12.02
2022-09-28T11:07:47.204Z,12.06
2022-09-28T11:12:50.062Z,11.71
2022-09-28T11:17:51.849Z,11.61
2022-09-28T11:22:59.347Z,11.59
2022-09-28T11:28:04.385Z,11.51
2022-09-28T11:33:20.022Z,11.83
2022-09-28T11:38:34.082Z,11.99
2022-09-28T11:44:00.467Z,12.34
2022-09-28T11:49:11.335Z,13.15
2022-09-28T11:54:21.982Z,14.10
2022-09-28T11:59:34.332Z,14.72
2022-09-28T12:04:39.095Z,14.96
2022-09-28T12:09:43.961Z,15.05
2022-09-28T12:14:47.392Z,14.75
2022-09-28T12:19:55.407Z,14.97
2022-09-28T12:24:58.424Z,16.14
2022-09-28T12:30:32.033Z,16.65
2022-09-28T12:35:36.192Z,18.11
2022-09-28T12:40:54.579Z,18.82
2022-09-28T12:46:12.024Z,18.51
2022-09-28T12:51:52.854Z,18.32
2022-09-28T12:57:05.601Z,18.50
2022-09-28T13:02:26.611Z,18.25
2022-09-28T13:07:56.105Z,18.23
2022-09-28T13:13:16.338Z,18.70
2022-09-28T13:18:38.932Z,18.66
2022-09-28T13:23:46.380Z,18.15
2022-09-28T13:28:51.325Z,18.16
2022-09-28T13:33:53.597Z,18.06
2022-09-28T13:38:57.120Z,17.56
2022-09-28T13:44:11.034Z,18.35
2022-09-28T13:49:18.670Z,17.88
2022-09-28T13:54:26.267Z,17.08
2022-09-28T13:59:29.812Z,16.16
2022-09-28T14:05:26.399Z,15.98
2022-09-28T14:10:51.846Z,17.11
2022-09-28T14:15:53.483Z,17.50
2022-09-28T14:21:24.978Z,17.72
2022-09-28T14:26:51.132Z,17.10
2022-09-28T14:31:52.772Z,16.01
2022-09-28T14:37:13.161Z,15.76
2022-09-28T14:42:18.887Z,15.91
2022-09-28T14:47:43.097Z,15.66
2022-09-28T14:52:53.473Z,15.39
2022-09-28T14:57:58.375Z,14.89
2022-09-28T15:03:05.966Z,14.95
2022-09-28T15:08:11.861Z,14.84
2022-09-28T15:13:25.653Z,14.43
2022-09-28T15:18:45.794Z,14.22
2022-09-28T15:23:48.129Z,13.99
2022-09-28T15:28:49.815Z,13.44
2022-09-28T15:34:10.635Z,12.96
2022-09-28T15:39:25.214Z,12.46
2022-09-28T15:44:32.975Z,12.00
2022-09-28T15:49:53.177Z,11.74
2022-09-28T15:54:55.707Z,11.40
2022-09-28T15:59:59.125Z,11.23
2022-09-28T16:05:02.313Z,10.91
2022-09-28T16:10:12.876Z,10.74
2022-09-28T16:15:21.807Z,10.63
2022-09-28T16:20:32.002Z,10.44
2022-09-28T16:25:37.406Z,10.32
2022-09-28T16:31:00.527Z,10.11
2022-09-28T16:36:03.307Z,9.83
2022-09-28T16:41:05.932Z,9.73
2022-09-28T16:46:13.348Z,9.64
2022-09-28T16:51:19.543Z,9.64
2022-09-28T16:56:21.674Z,9.50
2022-09-28T17:01:24.242Z,9.36
2022-09-28T17:06:26.965Z,9.18
2022-09-28T17:11:28.629Z,9.05
2022-09-28T17:16:57.652Z,8.92
2022-09-28T17:21:54.030Z,8.68
2022-09-28T17:26:55.770Z,8.61
2022-09-28T17:31:57.234Z,8.54
2022-09-28T17:36:58.744Z,8.53
2022-09-28T17:42:00.363Z,8.49
2022-09-28T17:47:01.965Z,8.42
2022-09-28T17:52:05.408Z,8.39
2022-09-28T17:57:08.796Z,8.22
2022-09-28T18:02:11.204Z,8.11
2022-09-28T18:07:12.666Z,8.07
2022-09-28T18:12:14.261Z,7.84
2022-09-28T18:17:16.039Z,7.70
2022-09-28T18:22:17.583Z,7.63
2022-09-28T18:27:19.077Z,7.54
2022-09-28T18:32:20.529Z,7.49
2022-09-28T18:37:21.956Z,7.46
2022-09-28T18:42:23.519Z,7.39
2022-09-28T18:47:25.502Z,7.37
2022-09-28T18:52:27.565Z,7.31
2022-09-28T18:57:29.011Z,7.25
2022-09-28T19:02:32.003Z,7.25
2022-09-28T19:07:34.217Z,7.24
2022-09-28T19:12:35.890Z,7.13
2022-09-28T19:17:37.595Z,7.06
2022-09-28T19:22:39.126Z,6.92
2022-09-28T19:27:40.647Z,6.85
2022-09-28T19:32:42.808Z,6.84
2022-09-28T19:37:46.571Z,6.82
2022-09-28T19:42:47.965Z,6.80
2022-09-28T19:47:49.451Z,6.72
2022-09-28T19:52:52.381Z,6.65
2022-09-28T19:57:55.366Z,6.57
2022-09-28T20:02:58.264Z,6.61
2022-09-28T20:07:59.758Z,6.54
2022-09-28T20:13:01.242Z,6.47
2022-09-28T20:18:02.671Z,6.44
2022-09-28T20:23:04.620Z,6.40
2022-09-28T20:28:06.043Z,6.40
2022-09-28T20:33:07.823Z,6.48
2022-09-28T20:38:09.288Z,6.56
2022-09-28T20:43:10.811Z,6.65
2022-09-28T20:48:12.230Z,6.67
2022-09-28T20:53:13.620Z,6.63
2022-09-28T20:58:15.057Z,6.60
2022-09-28T21:03:16.550Z,6.67
2022-09-28T21:08:17.981Z,6.73
2022-09-28T21:13:21.148Z,6.84
2022-09-28T21:18:22.684Z,6.91
2022-09-28T21:23:25.020Z,6.95
2022-09-28T21:28:26.685Z,7.01
2022-09-28T21:33:28.139Z,6.91
2022-09-28T21:38:30.048Z,6.88
2022-09-28T21:43:31.829Z,6.86
2022-09-28T21:48:33.457Z,6.85
2022-09-28T21:53:37.223Z,6.86
2022-09-28T21:58:38.677Z,6.88
2022-09-28T22:03:41.587Z,6.84
2022-09-28T22:08:43.285Z,6.86
2022-09-28T22:13:49.859Z,6.84
2022-09-28T22:18:51.480Z,6.78
2022-09-28T22:23:53.456Z,6.72
2022-09-28T22:29:00.734Z,6.71
2022-09-28T22:34:03.019Z,6.62
2022-09-28T22:39:04.702Z,6.57
2022-09-28T22:44:06.216Z,6.57
2022-09-28T22:49:10.020Z,6.52
2022-09-28T22:54:16.372Z,6.49
2022-09-28T22:59:17.869Z,6.42
2022-09-28T23:04:19.357Z,6.32
2022-09-28T23:09:20.764Z,6.24
2022-09-28T23:14:22.685Z,6.17
2022-09-28T23:19:24.133Z,6.14
2022-09-28T23:24:25.715Z,6.18
2022-09-28T23:29:27.153Z,6.21
2022-09-28T23:34:28.568Z,6.24
2022-09-28T23:39:30.096Z,6.18
2022-09-28T23:44:32.639Z,6.17
2022-09-28T23:49:34.044Z,6.18
2022-09-28T23:54:35.512Z,6.10
2022-09-28T23:59:36.923Z,6.07
